sensor_id;sensor_type;location;lat;lon;timestamp;P1;durP1;ratioP1;P2;durP2;ratioP2
36191;SDS011;22233;42.708;23.360;2023-05-10T00:01:07;6.28;;;3.40;;
36191;SDS011;22233;42.708;23.360;2023-05-10T00:03:32;3.95;;;3.40;;
36191;SDS011;22233;42.708;23.360;2023-05-10T00:05:58;5.90;;;4.38;;
36191;SDS011;22233;42.708;23.360;2023-05-10T00:08:23;7.45;;;5.50;;
36191;SDS011;22233;42.708;23.360;2023-05-10T00:10:49;5.68;;;4.90;;
36191;SDS011;22233;42.708;23.360;2023-05-10T00:13:14;6.18;;;5.40;;
36191;SDS011;22233;42.708;23.360;2023-05-10T00:15:40;5.30;;;4.72;;
36191;SDS011;22233;42.708;23.360;2023-05-10T00:18:05;5.90;;;5.07;;
36191;SDS011;22233;42.708;23.360;2023-05-10T00:20:31;8.82;;;5.60;;
36191;SDS011;22233;42.708;23.360;2023-05-10T00:22:56;7.40;;;5.32;;
36191;SDS011;22233;42.708;23.360;2023-05-10T00:25:22;5.88;;;5.28;;
36191;SDS011;22233;42.708;23.360;2023-05-10T00:27:47;5.20;;;4.40;;
36191;SDS011;22233;42.708;23.360;2023-05-10T00:30:12;6.22;;;4.38;;
36191;SDS011;22233;42.708;23.360;2023-05-10T00:32:38;6.07;;;4.70;;
36191;SDS011;22233;42.708;23.360;2023-05-10T00:35:03;5.97;;;4.28;;
36191;SDS011;22233;42.708;23.360;2023-05-10T00:37:29;12.85;;;5.75;;
36191;SDS011;22233;42.708;23.360;2023-05-10T00:39:55;5.88;;;4.82;;
36191;SDS011;22233;42.708;23.360;2023-05-10T00:42:20;5.60;;;4.53;;
36191;SDS011;22233;42.708;23.360;2023-05-10T00:44:45;5.55;;;4.90;;
36191;SDS011;22233;42.708;23.360;2023-05-10T00:47:11;5.20;;;4.25;;
36191;SDS011;22233;42.708;23.360;2023-05-10T00:49:37;5.50;;;4.70;;
36191;SDS011;22233;42.708;23.360;2023-05-10T00:52:03;5.78;;;5.18;;
36191;SDS011;22233;42.708;23.360;2023-05-10T00:54:28;6.63;;;4.72;;
36191;SDS011;22233;42.708;23.360;2023-05-10T00:56:54;6.18;;;5.10;;
36191;SDS011;22233;42.708;23.360;2023-05-10T00:59:21;5.65;;;5.05;;
36191;SDS011;22233;42.708;23.360;2023-05-10T01:01:47;5.03;;;4.45;;
36191;SDS011;22233;42.708;23.360;2023-05-10T01:04:13;6.30;;;5.70;;
36191;SDS011;22233;42.708;23.360;2023-05-10T01:06:40;7.45;;;5.93;;
36191;SDS011;22233;42.708;23.360;2023-05-10T01:09:06;6.78;;;5.72;;
36191;SDS011;22233;42.708;23.360;2023-05-10T01:11:33;6.28;;;5.68;;
36191;SDS011;22233;42.708;23.360;2023-05-10T01:14:00;6.60;;;5.55;;
36191;SDS011;22233;42.708;23.360;2023-05-10T01:16:27;6.27;;;5.10;;
36191;SDS011;22233;42.708;23.360;2023-05-10T01:18:57;8.57;;;5.53;;
36191;SDS011;22233;42.708;23.360;2023-05-10T01:21:40;5.88;;;5.28;;
36191;SDS011;22233;42.708;23.360;2023-05-10T01:26:49;5.75;;;5.05;;
36191;SDS011;22233;42.708;23.360;2023-05-10T01:32:20;5.85;;;4.97;;
36191;SDS011;22233;42.708;23.360;2023-05-10T01:34:49;4.80;;;4.18;;
36191;SDS011;22233;42.708;23.360;2023-05-10T01:40:48;6.18;;;4.35;;
36191;SDS011;22233;42.708;23.360;2023-05-10T01:43:22;6.40;;;4.47;;
36191;SDS011;22233;42.708;23.360;2023-05-10T01:45:57;4.40;;;4.00;;
36191;SDS011;22233;42.708;23.360;2023-05-10T01:48:29;5.30;;;4.10;;
36191;SDS011;22233;42.708;23.360;2023-05-10T01:50:56;4.57;;;4.17;;
36191;SDS011;22233;42.708;23.360;2023-05-10T01:53:23;4.55;;;4.15;;
36191;SDS011;22233;42.708;23.360;2023-05-10T01:55:49;4.82;;;4.07;;
36191;SDS011;22233;42.708;23.360;2023-05-10T01:58:20;3.88;;;3.47;;
36191;SDS011;22233;42.708;23.360;2023-05-10T02:00:50;4.35;;;3.85;;
36191;SDS011;22233;42.708;23.360;2023-05-10T02:03:17;4.47;;;3.45;;
36191;SDS011;22233;42.708;23.360;2023-05-10T02:05:45;4.15;;;3.72;;
36191;SDS011;22233;42.708;23.360;2023-05-10T02:08:13;4.70;;;4.07;;
36191;SDS011;22233;42.708;23.360;2023-05-10T02:10:42;6.28;;;4.10;;
36191;SDS011;22233;42.708;23.360;2023-05-10T02:13:09;4.45;;;3.67;;
36191;SDS011;22233;42.708;23.360;2023-05-10T02:15:36;4.15;;;3.75;;
36191;SDS011;22233;42.708;23.360;2023-05-10T02:18:03;4.53;;;3.85;;
36191;SDS011;22233;42.708;23.360;2023-05-10T02:20:31;4.10;;;3.70;;
36191;SDS011;22233;42.708;23.360;2023-05-10T02:22:57;4.20;;;3.80;;
36191;SDS011;22233;42.708;23.360;2023-05-10T02:25:23;4.45;;;3.72;;
36191;SDS011;22233;42.708;23.360;2023-05-10T02:27:51;3.72;;;3.42;;
36191;SDS011;22233;42.708;23.360;2023-05-10T02:30:18;5.40;;;3.60;;
36191;SDS011;22233;42.708;23.360;2023-05-10T02:32:45;5.22;;;3.10;;
36191;SDS011;22233;42.708;23.360;2023-05-10T02:35:13;3.97;;;2.72;;
36191;SDS011;22233;42.708;23.360;2023-05-10T02:37:40;3.67;;;3.10;;
36191;SDS011;22233;42.708;23.360;2023-05-10T02:40:06;3.92;;;3.35;;
36191;SDS011;22233;42.708;23.360;2023-05-10T02:42:35;4.43;;;3.50;;
36191;SDS011;22233;42.708;23.360;2023-05-10T02:45:03;5.15;;;3.53;;
36191;SDS011;22233;42.708;23.360;2023-05-10T02:47:33;5.15;;;3.55;;
36191;SDS011;22233;42.708;23.360;2023-05-10T02:49:59;4.72;;;3.38;;
36191;SDS011;22233;42.708;23.360;2023-05-10T02:52:29;4.00;;;2.88;;
36191;SDS011;22233;42.708;23.360;2023-05-10T02:55:02;3.90;;;3.15;;
36191;SDS011;22233;42.708;23.360;2023-05-10T02:57:34;5.53;;;3.33;;
36191;SDS011;22233;42.708;23.360;2023-05-10T03:00:01;6.88;;;3.47;;
36191;SDS011;22233;42.708;23.360;2023-05-10T03:02:28;4.60;;;3.63;;
36191;SDS011;22233;42.708;23.360;2023-05-10T03:04:55;4.40;;;3.75;;
36191;SDS011;22233;42.708;23.360;2023-05-10T03:07:21;5.50;;;3.47;;
36191;SDS011;22233;42.708;23.360;2023-05-10T03:09:47;5.03;;;3.40;;
36191;SDS011;22233;42.708;23.360;2023-05-10T03:12:23;3.38;;;3.00;;
36191;SDS011;22233;42.708;23.360;2023-05-10T03:17:39;4.53;;;3.13;;
36191;SDS011;22233;42.708;23.360;2023-05-10T03:20:31;6.10;;;3.50;;
36191;SDS011;22233;42.708;23.360;2023-05-10T03:23:00;5.90;;;4.10;;
36191;SDS011;22233;42.708;23.360;2023-05-10T03:25:35;4.90;;;4.00;;
36191;SDS011;22233;42.708;23.360;2023-05-10T03:28:02;4.50;;;3.67;;
36191;SDS011;22233;42.708;23.360;2023-05-10T03:30:29;5.32;;;3.70;;
36191;SDS011;22233;42.708;23.360;2023-05-10T03:32:56;4.22;;;3.42;;
36191;SDS011;22233;42.708;23.360;2023-05-10T03:35:22;5.35;;;3.38;;
36191;SDS011;22233;42.708;23.360;2023-05-10T03:37:48;4.60;;;3.22;;
36191;SDS011;22233;42.708;23.360;2023-05-10T03:40:14;4.45;;;3.28;;
36191;SDS011;22233;42.708;23.360;2023-05-10T03:42:40;5.78;;;3.85;;
36191;SDS011;22233;42.708;23.360;2023-05-10T03:45:06;4.32;;;3.50;;
36191;SDS011;22233;42.708;23.360;2023-05-10T03:47:32;5.90;;;3.75;;
36191;SDS011;22233;42.708;23.360;2023-05-10T03:49:57;4.55;;;3.13;;
36191;SDS011;22233;42.708;23.360;2023-05-10T03:52:22;5.97;;;3.47;;
36191;SDS011;22233;42.708;23.360;2023-05-10T03:54:48;4.15;;;3.30;;
36191;SDS011;22233;42.708;23.360;2023-05-10T03:57:13;4.35;;;2.92;;
36191;SDS011;22233;42.708;23.360;2023-05-10T03:59:39;5.60;;;3.28;;
36191;SDS011;22233;42.708;23.360;2023-05-10T04:02:04;4.28;;;3.25;;
36191;SDS011;22233;42.708;23.360;2023-05-10T04:04:30;5.15;;;3.20;;
36191;SDS011;22233;42.708;23.360;2023-05-10T04:06:55;6.00;;;3.50;;
36191;SDS011;22233;42.708;23.360;2023-05-10T04:09:21;4.60;;;3.58;;
36191;SDS011;22233;42.708;23.360;2023-05-10T04:11:46;4.95;;;3.63;;
36191;SDS011;22233;42.708;23.360;2023-05-10T04:14:12;4.32;;;3.30;;
36191;SDS011;22233;42.708;23.360;2023-05-10T04:16:37;5.10;;;3.58;;
36191;SDS011;22233;42.708;23.360;2023-05-10T04:19:02;3.22;;;2.92;;
36191;SDS011;22233;42.708;23.360;2023-05-10T04:21:28;6.07;;;3.95;;
36191;SDS011;22233;42.708;23.360;2023-05-10T04:23:54;5.43;;;3.20;;
36191;SDS011;22233;42.708;23.360;2023-05-10T04:26:19;4.40;;;2.60;;
36191;SDS011;22233;42.708;23.360;2023-05-10T04:28:45;6.10;;;3.08;;
36191;SDS011;22233;42.708;23.360;2023-05-10T04:31:11;4.20;;;3.47;;
36191;SDS011;22233;42.708;23.360;2023-05-10T04:33:36;3.38;;;3.05;;
36191;SDS011;22233;42.708;23.360;2023-05-10T04:36:02;4.47;;;3.45;;
36191;SDS011;22233;42.708;23.360;2023-05-10T04:38:28;4.57;;;3.58;;
36191;SDS011;22233;42.708;23.360;2023-05-10T04:40:54;4.72;;;3.50;;
36191;SDS011;22233;42.708;23.360;2023-05-10T04:43:19;4.32;;;3.40;;
36191;SDS011;22233;42.708;23.360;2023-05-10T04:45:45;5.60;;;3.33;;
36191;SDS011;22233;42.708;23.360;2023-05-10T04:48:11;4.60;;;3.80;;
36191;SDS011;22233;42.708;23.360;2023-05-10T04:50:36;6.93;;;4.65;;
36191;SDS011;22233;42.708;23.360;2023-05-10T04:53:02;5.95;;;3.20;;
36191;SDS011;22233;42.708;23.360;2023-05-10T04:55:27;8.73;;;4.03;;
36191;SDS011;22233;42.708;23.360;2023-05-10T04:57:53;4.78;;;3.63;;
36191;SDS011;22233;42.708;23.360;2023-05-10T05:00:21;4.88;;;3.75;;
36191;SDS011;22233;42.708;23.360;2023-05-10T05:02:47;5.47;;;4.00;;
36191;SDS011;22233;42.708;23.360;2023-05-10T05:05:12;4.78;;;3.53;;
36191;SDS011;22233;42.708;23.360;2023-05-10T05:07:38;4.03;;;3.13;;
36191;SDS011;22233;42.708;23.360;2023-05-10T05:10:07;6.03;;;3.83;;
36191;SDS011;22233;42.708;23.360;2023-05-10T05:12:34;7.95;;;3.60;;
36191;SDS011;22233;42.708;23.360;2023-05-10T05:15:00;4.18;;;3.65;;
36191;SDS011;22233;42.708;23.360;2023-05-10T05:17:25;6.03;;;3.78;;
36191;SDS011;22233;42.708;23.360;2023-05-10T05:19:51;4.43;;;3.50;;
36191;SDS011;22233;42.708;23.360;2023-05-10T05:22:16;4.40;;;3.30;;
36191;SDS011;22233;42.708;23.360;2023-05-10T05:24:42;6.45;;;4.15;;
36191;SDS011;22233;42.708;23.360;2023-05-10T05:27:07;6.50;;;4.15;;
36191;SDS011;22233;42.708;23.360;2023-05-10T05:29:33;4.18;;;3.78;;
36191;SDS011;22233;42.708;23.360;2023-05-10T05:31:58;4.05;;;3.67;;
36191;SDS011;22233;42.708;23.360;2023-05-10T05:34:24;6.15;;;3.95;;
36191;SDS011;22233;42.708;23.360;2023-05-10T05:36:50;5.47;;;4.05;;
36191;SDS011;22233;42.708;23.360;2023-05-10T05:39:15;7.45;;;4.65;;
36191;SDS011;22233;42.708;23.360;2023-05-10T05:41:41;5.25;;;3.92;;
36191;SDS011;22233;42.708;23.360;2023-05-10T05:44:06;6.25;;;4.47;;
36191;SDS011;22233;42.708;23.360;2023-05-10T05:46:32;5.85;;;4.55;;
36191;SDS011;22233;42.708;23.360;2023-05-10T05:48:57;7.40;;;5.20;;
36191;SDS011;22233;42.708;23.360;2023-05-10T05:51:22;7.10;;;4.18;;
36191;SDS011;22233;42.708;23.360;2023-05-10T05:53:48;6.38;;;4.43;;
36191;SDS011;22233;42.708;23.360;2023-05-10T05:56:13;5.47;;;4.38;;
36191;SDS011;22233;42.708;23.360;2023-05-10T05:58:39;4.85;;;4.07;;
36191;SDS011;22233;42.708;23.360;2023-05-10T06:01:04;5.90;;;4.53;;
36191;SDS011;22233;42.708;23.360;2023-05-10T06:03:30;5.50;;;3.85;;
36191;SDS011;22233;42.708;23.360;2023-05-10T06:05:55;5.68;;;4.18;;
36191;SDS011;22233;42.708;23.360;2023-05-10T06:08:20;5.40;;;3.85;;
36191;SDS011;22233;42.708;23.360;2023-05-10T06:10:46;4.20;;;3.58;;
36191;SDS011;22233;42.708;23.360;2023-05-10T06:13:11;6.47;;;3.75;;
36191;SDS011;22233;42.708;23.360;2023-05-10T06:15:37;5.38;;;3.95;;
36191;SDS011;22233;42.708;23.360;2023-05-10T06:18:03;5.10;;;3.53;;
36191;SDS011;22233;42.708;23.360;2023-05-10T06:20:28;5.50;;;4.20;;
36191;SDS011;22233;42.708;23.360;2023-05-10T06:22:56;6.13;;;3.70;;
36191;SDS011;22233;42.708;23.360;2023-05-10T06:25:22;4.85;;;3.80;;
36191;SDS011;22233;42.708;23.360;2023-05-10T06:27:47;6.80;;;4.53;;
36191;SDS011;22233;42.708;23.360;2023-05-10T06:30:13;6.45;;;3.67;;
36191;SDS011;22233;42.708;23.360;2023-05-10T06:32:40;4.25;;;3.58;;
36191;SDS011;22233;42.708;23.360;2023-05-10T06:35:06;5.60;;;3.70;;
36191;SDS011;22233;42.708;23.360;2023-05-10T06:37:32;5.45;;;4.30;;
36191;SDS011;22233;42.708;23.360;2023-05-10T06:39:59;5.30;;;3.88;;
36191;SDS011;22233;42.708;23.360;2023-05-10T06:42:25;5.20;;;3.90;;
36191;SDS011;22233;42.708;23.360;2023-05-10T06:44:52;3.88;;;3.22;;
36191;SDS011;22233;42.708;23.360;2023-05-10T06:47:17;5.78;;;4.22;;
36191;SDS011;22233;42.708;23.360;2023-05-10T06:49:42;6.80;;;4.13;;
36191;SDS011;22233;42.708;23.360;2023-05-10T06:52:08;5.70;;;3.83;;
36191;SDS011;22233;42.708;23.360;2023-05-10T06:54:33;4.95;;;3.35;;
36191;SDS011;22233;42.708;23.360;2023-05-10T06:56:59;5.05;;;3.75;;
36191;SDS011;22233;42.708;23.360;2023-05-10T06:59:24;7.18;;;4.20;;
36191;SDS011;22233;42.708;23.360;2023-05-10T07:01:50;6.72;;;4.43;;
36191;SDS011;22233;42.708;23.360;2023-05-10T07:04:15;5.40;;;4.32;;
36191;SDS011;22233;42.708;23.360;2023-05-10T07:06:40;6.35;;;4.38;;
36191;SDS011;22233;42.708;23.360;2023-05-10T07:09:06;6.78;;;4.15;;
36191;SDS011;22233;42.708;23.360;2023-05-10T07:11:32;5.55;;;4.40;;
36191;SDS011;22233;42.708;23.360;2023-05-10T07:13:58;5.25;;;3.97;;
36191;SDS011;22233;42.708;23.360;2023-05-10T07:16:23;4.00;;;3.58;;
36191;SDS011;22233;42.708;23.360;2023-05-10T07:18:48;4.90;;;3.65;;
36191;SDS011;22233;42.708;23.360;2023-05-10T07:21:15;3.65;;;3.15;;
36191;SDS011;22233;42.708;23.360;2023-05-10T07:23:41;4.65;;;3.65;;
36191;SDS011;22233;42.708;23.360;2023-05-10T07:26:06;5.68;;;3.42;;
36191;SDS011;22233;42.708;23.360;2023-05-10T07:28:32;4.95;;;3.83;;
36191;SDS011;22233;42.708;23.360;2023-05-10T07:30:57;5.55;;;3.90;;
36191;SDS011;22233;42.708;23.360;2023-05-10T07:33:22;4.40;;;3.25;;
36191;SDS011;22233;42.708;23.360;2023-05-10T07:35:49;4.97;;;3.58;;
36191;SDS011;22233;42.708;23.360;2023-05-10T07:38:15;5.55;;;3.08;;
36191;SDS011;22233;42.708;23.360;2023-05-10T07:40:40;6.90;;;3.30;;
36191;SDS011;22233;42.708;23.360;2023-05-10T07:43:06;4.45;;;3.30;;
36191;SDS011;22233;42.708;23.360;2023-05-10T07:45:31;4.28;;;3.60;;
36191;SDS011;22233;42.708;23.360;2023-05-10T07:47:57;4.20;;;3.80;;
36191;SDS011;22233;42.708;23.360;2023-05-10T07:50:22;9.43;;;3.67;;
36191;SDS011;22233;42.708;23.360;2023-05-10T07:52:48;3.90;;;3.13;;
36191;SDS011;22233;42.708;23.360;2023-05-10T07:55:13;4.75;;;3.03;;
36191;SDS011;22233;42.708;23.360;2023-05-10T07:57:39;4.07;;;3.35;;
36191;SDS011;22233;42.708;23.360;2023-05-10T08:00:04;5.55;;;4.10;;
36191;SDS011;22233;42.708;23.360;2023-05-10T08:02:31;8.57;;;4.50;;
36191;SDS011;22233;42.708;23.360;2023-05-10T08:04:56;4.72;;;3.95;;
36191;SDS011;22233;42.708;23.360;2023-05-10T08:07:22;5.00;;;3.50;;
36191;SDS011;22233;42.708;23.360;2023-05-10T08:12:14;6.70;;;3.88;;
36191;SDS011;22233;42.708;23.360;2023-05-10T08:14:40;5.82;;;4.53;;
36191;SDS011;22233;42.708;23.360;2023-05-10T08:17:06;6.25;;;4.18;;
36191;SDS011;22233;42.708;23.360;2023-05-10T08:19:31;8.00;;;4.68;;
36191;SDS011;22233;42.708;23.360;2023-05-10T08:21:57;7.07;;;4.93;;
36191;SDS011;22233;42.708;23.360;2023-05-10T08:24:22;9.23;;;4.68;;
36191;SDS011;22233;42.708;23.360;2023-05-10T08:26:48;7.05;;;4.63;;
36191;SDS011;22233;42.708;23.360;2023-05-10T08:29:13;9.57;;;5.35;;
36191;SDS011;22233;42.708;23.360;2023-05-10T08:31:39;7.45;;;4.65;;
36191;SDS011;22233;42.708;23.360;2023-05-10T08:34:05;6.45;;;4.53;;
36191;SDS011;22233;42.708;23.360;2023-05-10T08:36:30;5.97;;;5.07;;
36191;SDS011;22233;42.708;23.360;2023-05-10T08:38:57;6.30;;;4.80;;
36191;SDS011;22233;42.708;23.360;2023-05-10T08:41:23;5.88;;;4.65;;
36191;SDS011;22233;42.708;23.360;2023-05-10T08:46:17;7.28;;;4.57;;
36191;SDS011;22233;42.708;23.360;2023-05-10T08:48:44;9.35;;;5.00;;
36191;SDS011;22233;42.708;23.360;2023-05-10T08:51:14;5.22;;;4.00;;
36191;SDS011;22233;42.708;23.360;2023-05-10T08:53:42;9.30;;;5.18;;
36191;SDS011;22233;42.708;23.360;2023-05-10T08:56:09;7.05;;;4.38;;
36191;SDS011;22233;42.708;23.360;2023-05-10T08:58:35;6.85;;;5.10;;
36191;SDS011;22233;42.708;23.360;2023-05-10T09:01:01;6.38;;;4.78;;
36191;SDS011;22233;42.708;23.360;2023-05-10T09:03:27;7.93;;;5.13;;
36191;SDS011;22233;42.708;23.360;2023-05-10T09:05:53;6.13;;;4.40;;
36191;SDS011;22233;42.708;23.360;2023-05-10T09:08:20;4.13;;;3.72;;
36191;SDS011;22233;42.708;23.360;2023-05-10T09:10:50;4.80;;;4.15;;
36191;SDS011;22233;42.708;23.360;2023-05-10T09:13:16;5.82;;;4.53;;
36191;SDS011;22233;42.708;23.360;2023-05-10T09:15:43;6.72;;;3.78;;
36191;SDS011;22233;42.708;23.360;2023-05-10T09:18:10;6.07;;;3.97;;
36191;SDS011;22233;42.708;23.360;2023-05-10T09:20:35;6.22;;;4.32;;
36191;SDS011;22233;42.708;23.360;2023-05-10T09:23:01;6.57;;;4.45;;
36191;SDS011;22233;42.708;23.360;2023-05-10T09:25:26;7.28;;;5.10;;
36191;SDS011;22233;42.708;23.360;2023-05-10T09:27:52;7.13;;;4.70;;
36191;SDS011;22233;42.708;23.360;2023-05-10T09:30:23;8.00;;;5.07;;
36191;SDS011;22233;42.708;23.360;2023-05-10T09:32:53;9.68;;;5.63;;
36191;SDS011;22233;42.708;23.360;2023-05-10T09:35:19;9.75;;;5.78;;
36191;SDS011;22233;42.708;23.360;2023-05-10T09:37:49;5.15;;;4.65;;
36191;SDS011;22233;42.708;23.360;2023-05-10T09:40:16;8.57;;;5.97;;
36191;SDS011;22233;42.708;23.360;2023-05-10T09:42:50;6.25;;;5.35;;
36191;SDS011;22233;42.708;23.360;2023-05-10T09:45:16;5.75;;;4.97;;
36191;SDS011;22233;42.708;23.360;2023-05-10T09:47:41;10.32;;;6.22;;
36191;SDS011;22233;42.708;23.360;2023-05-10T09:50:07;5.68;;;4.60;;
36191;SDS011;22233;42.708;23.360;2023-05-10T09:55:16;4.97;;;3.90;;
36191;SDS011;22233;42.708;23.360;2023-05-10T09:57:42;6.20;;;5.40;;
36191;SDS011;22233;42.708;23.360;2023-05-10T10:00:08;6.20;;;5.07;;
36191;SDS011;22233;42.708;23.360;2023-05-10T10:02:38;7.18;;;4.60;;
36191;SDS011;22233;42.708;23.360;2023-05-10T10:05:05;5.80;;;4.15;;
36191;SDS011;22233;42.708;23.360;2023-05-10T10:07:31;7.38;;;4.28;;
36191;SDS011;22233;42.708;23.360;2023-05-10T10:09:58;5.05;;;4.38;;
36191;SDS011;22233;42.708;23.360;2023-05-10T10:12:24;7.85;;;4.88;;
36191;SDS011;22233;42.708;23.360;2023-05-10T10:14:50;9.75;;;4.72;;
36191;SDS011;22233;42.708;23.360;2023-05-10T10:17:17;7.38;;;4.50;;
36191;SDS011;22233;42.708;23.360;2023-05-10T10:19:42;8.68;;;4.80;;
36191;SDS011;22233;42.708;23.360;2023-05-10T10:22:08;5.97;;;4.70;;
36191;SDS011;22233;42.708;23.360;2023-05-10T10:24:36;4.70;;;4.07;;
36191;SDS011;22233;42.708;23.360;2023-05-10T10:27:07;6.32;;;4.22;;
36191;SDS011;22233;42.708;23.360;2023-05-10T10:29:49;3.70;;;3.40;;
36191;SDS011;22233;42.708;23.360;2023-05-10T10:32:28;4.05;;;3.58;;
36191;SDS011;22233;42.708;23.360;2023-05-10T10:35:02;6.45;;;4.03;;
36191;SDS011;22233;42.708;23.360;2023-05-10T10:37:42;6.05;;;4.22;;
36191;SDS011;22233;42.708;23.360;2023-05-10T10:40:26;5.05;;;4.10;;
36191;SDS011;22233;42.708;23.360;2023-05-10T10:42:53;6.38;;;3.20;;
36191;SDS011;22233;42.708;23.360;2023-05-10T10:45:19;4.90;;;3.45;;
36191;SDS011;22233;42.708;23.360;2023-05-10T10:47:46;4.78;;;3.70;;
36191;SDS011;22233;42.708;23.360;2023-05-10T10:50:12;7.40;;;3.55;;
36191;SDS011;22233;42.708;23.360;2023-05-10T10:55:08;5.80;;;3.42;;
36191;SDS011;22233;42.708;23.360;2023-05-10T11:00:27;4.32;;;3.35;;
36191;SDS011;22233;42.708;23.360;2023-05-10T11:02:58;5.95;;;4.28;;
36191;SDS011;22233;42.708;23.360;2023-05-10T11:05:37;4.55;;;4.13;;
36191;SDS011;22233;42.708;23.360;2023-05-10T11:08:13;4.80;;;3.42;;
36191;SDS011;22233;42.708;23.360;2023-05-10T11:10:48;5.20;;;3.00;;
36191;SDS011;22233;42.708;23.360;2023-05-10T11:13:17;4.85;;;3.47;;
36191;SDS011;22233;42.708;23.360;2023-05-10T11:15:53;5.13;;;3.65;;
36191;SDS011;22233;42.708;23.360;2023-05-10T11:18:31;7.25;;;3.88;;
36191;SDS011;22233;42.708;23.360;2023-05-10T11:20:57;4.32;;;3.58;;
36191;SDS011;22233;42.708;23.360;2023-05-10T11:23:29;8.27;;;4.07;;
36191;SDS011;22233;42.708;23.360;2023-05-10T11:25:55;8.05;;;4.03;;
36191;SDS011;22233;42.708;23.360;2023-05-10T11:28:21;7.00;;;3.47;;
36191;SDS011;22233;42.708;23.360;2023-05-10T11:30:46;5.03;;;3.50;;
36191;SDS011;22233;42.708;23.360;2023-05-10T11:33:16;9.73;;;4.90;;
36191;SDS011;22233;42.708;23.360;2023-05-10T11:35:42;5.30;;;3.65;;
36191;SDS011;22233;42.708;23.360;2023-05-10T11:38:08;6.28;;;4.55;;
36191;SDS011;22233;42.708;23.360;2023-05-10T11:40:38;4.70;;;3.75;;
36191;SDS011;22233;42.708;23.360;2023-05-10T11:43:04;4.90;;;4.40;;
36191;SDS011;22233;42.708;23.360;2023-05-10T11:45:33;8.10;;;4.82;;
36191;SDS011;22233;42.708;23.360;2023-05-10T11:47:59;5.22;;;3.30;;
36191;SDS011;22233;42.708;23.360;2023-05-10T11:50:25;5.53;;;4.20;;
36191;SDS011;22233;42.708;23.360;2023-05-10T11:52:51;6.78;;;4.05;;
36191;SDS011;22233;42.708;23.360;2023-05-10T11:55:21;4.53;;;3.75;;
36191;SDS011;22233;42.708;23.360;2023-05-10T11:57:47;4.90;;;3.50;;
36191;SDS011;22233;42.708;23.360;2023-05-10T12:00:13;9.52;;;3.90;;
36191;SDS011;22233;42.708;23.360;2023-05-10T12:02:39;6.78;;;4.22;;
36191;SDS011;22233;42.708;23.360;2023-05-10T12:05:05;5.55;;;3.88;;
36191;SDS011;22233;42.708;23.360;2023-05-10T12:07:31;8.00;;;4.70;;
36191;SDS011;22233;42.708;23.360;2023-05-10T12:10:06;4.63;;;3.85;;
36191;SDS011;22233;42.708;23.360;2023-05-10T12:12:42;4.57;;;3.70;;
36191;SDS011;22233;42.708;23.360;2023-05-10T12:15:19;4.57;;;3.80;;
36191;SDS011;22233;42.708;23.360;2023-05-10T12:17:49;4.95;;;4.30;;
36191;SDS011;22233;42.708;23.360;2023-05-10T12:20:21;5.75;;;4.57;;
36191;SDS011;22233;42.708;23.360;2023-05-10T12:22:52;7.30;;;4.82;;
36191;SDS011;22233;42.708;23.360;2023-05-10T12:25:19;5.13;;;3.95;;
36191;SDS011;22233;42.708;23.360;2023-05-10T12:30:20;6.05;;;4.95;;
36191;SDS011;22233;42.708;23.360;2023-05-10T12:32:49;6.20;;;4.20;;
36191;SDS011;22233;42.708;23.360;2023-05-10T12:35:15;4.75;;;3.97;;
36191;SDS011;22233;42.708;23.360;2023-05-10T12:37:44;6.50;;;4.20;;
36191;SDS011;22233;42.708;23.360;2023-05-10T12:40:10;7.40;;;4.75;;
36191;SDS011;22233;42.708;23.360;2023-05-10T12:42:39;6.07;;;4.50;;
36191;SDS011;22233;42.708;23.360;2023-05-10T12:45:05;8.25;;;3.97;;
36191;SDS011;22233;42.708;23.360;2023-05-10T12:47:32;5.03;;;4.18;;
36191;SDS011;22233;42.708;23.360;2023-05-10T12:49:58;5.10;;;4.53;;
36191;SDS011;22233;42.708;23.360;2023-05-10T12:52:24;6.57;;;4.78;;
36191;SDS011;22233;42.708;23.360;2023-05-10T12:54:51;6.75;;;4.80;;
36191;SDS011;22233;42.708;23.360;2023-05-10T12:57:16;7.28;;;4.97;;
36191;SDS011;22233;42.708;23.360;2023-05-10T12:59:42;6.78;;;4.63;;
36191;SDS011;22233;42.708;23.360;2023-05-10T13:02:07;7.90;;;4.95;;
36191;SDS011;22233;42.708;23.360;2023-05-10T13:04:33;8.85;;;5.13;;
36191;SDS011;22233;42.708;23.360;2023-05-10T13:06:58;11.00;;;5.78;;
36191;SDS011;22233;42.708;23.360;2023-05-10T13:09:24;6.72;;;4.60;;
36191;SDS011;22233;42.708;23.360;2023-05-10T13:11:51;5.35;;;4.10;;
36191;SDS011;22233;42.708;23.360;2023-05-10T13:14:18;6.47;;;4.65;;
36191;SDS011;22233;42.708;23.360;2023-05-10T13:16:45;5.55;;;4.25;;
36191;SDS011;22233;42.708;23.360;2023-05-10T13:19:11;6.90;;;4.22;;
36191;SDS011;22233;42.708;23.360;2023-05-10T13:21:36;8.05;;;4.50;;
36191;SDS011;22233;42.708;23.360;2023-05-10T13:24:01;7.90;;;4.53;;
36191;SDS011;22233;42.708;23.360;2023-05-10T13:26:27;7.55;;;4.85;;
36191;SDS011;22233;42.708;23.360;2023-05-10T13:28:53;7.00;;;4.53;;
36191;SDS011;22233;42.708;23.360;2023-05-10T13:31:20;5.65;;;4.50;;
36191;SDS011;22233;42.708;23.360;2023-05-10T13:33:46;6.40;;;4.38;;
36191;SDS011;22233;42.708;23.360;2023-05-10T13:36:11;6.03;;;4.45;;
36191;SDS011;22233;42.708;23.360;2023-05-10T13:38:37;6.63;;;4.28;;
36191;SDS011;22233;42.708;23.360;2023-05-10T13:41:02;7.97;;;5.10;;
36191;SDS011;22233;42.708;23.360;2023-05-10T13:43:28;4.60;;;3.78;;
36191;SDS011;22233;42.708;23.360;2023-05-10T13:45:54;10.07;;;5.03;;
36191;SDS011;22233;42.708;23.360;2023-05-10T13:48:29;5.82;;;4.43;;
36191;SDS011;22233;42.708;23.360;2023-05-10T13:50:54;5.10;;;3.75;;
36191;SDS011;22233;42.708;23.360;2023-05-10T13:53:21;4.93;;;3.30;;
36191;SDS011;22233;42.708;23.360;2023-05-10T13:55:46;8.13;;;4.82;;
36191;SDS011;22233;42.708;23.360;2023-05-10T13:58:12;5.55;;;3.70;;
36191;SDS011;22233;42.708;23.360;2023-05-10T14:00:38;5.47;;;4.05;;
36191;SDS011;22233;42.708;23.360;2023-05-10T14:03:03;4.68;;;3.78;;
36191;SDS011;22233;42.708;23.360;2023-05-10T14:05:30;7.63;;;4.30;;
36191;SDS011;22233;42.708;23.360;2023-05-10T14:07:55;5.15;;;4.20;;
36191;SDS011;22233;42.708;23.360;2023-05-10T14:10:21;6.78;;;4.03;;
36191;SDS011;22233;42.708;23.360;2023-05-10T14:12:46;4.35;;;3.67;;
36191;SDS011;22233;42.708;23.360;2023-05-10T14:15:12;4.75;;;3.75;;
36191;SDS011;22233;42.708;23.360;2023-05-10T14:17:37;7.20;;;4.20;;
36191;SDS011;22233;42.708;23.360;2023-05-10T14:20:03;7.00;;;4.97;;
36191;SDS011;22233;42.708;23.360;2023-05-10T14:22:29;8.35;;;4.88;;
36191;SDS011;22233;42.708;23.360;2023-05-10T14:24:54;6.10;;;5.03;;
36191;SDS011;22233;42.708;23.360;2023-05-10T14:27:20;5.00;;;4.30;;
36191;SDS011;22233;42.708;23.360;2023-05-10T14:29:46;6.80;;;4.90;;
36191;SDS011;22233;42.708;23.360;2023-05-10T14:32:12;7.05;;;5.00;;
36191;SDS011;22233;42.708;23.360;2023-05-10T14:34:37;8.88;;;5.28;;
36191;SDS011;22233;42.708;23.360;2023-05-10T14:37:03;5.68;;;4.10;;
36191;SDS011;22233;42.708;23.360;2023-05-10T14:39:29;8.23;;;4.35;;
36191;SDS011;22233;42.708;23.360;2023-05-10T14:41:55;5.20;;;4.70;;
36191;SDS011;22233;42.708;23.360;2023-05-10T14:44:20;4.70;;;3.97;;
36191;SDS011;22233;42.708;23.360;2023-05-10T14:46:46;6.88;;;4.85;;
36191;SDS011;22233;42.708;23.360;2023-05-10T14:49:12;7.35;;;3.97;;
36191;SDS011;22233;42.708;23.360;2023-05-10T14:51:38;5.43;;;4.07;;
36191;SDS011;22233;42.708;23.360;2023-05-10T14:54:03;4.63;;;3.78;;
36191;SDS011;22233;42.708;23.360;2023-05-10T14:56:29;5.53;;;3.92;;
36191;SDS011;22233;42.708;23.360;2023-05-10T14:58:54;6.70;;;4.45;;